Time;durP1;ratioP1;P1;durP2;ratioP2;P2;SDS_P1;SDS_P2;PMS_P1;PMS_P2;Temp;Humidity;BMP_temperature;BMP_pressure;BME280_temperature;BME280_humidity;BME280_pressure;Samples;Min_cycle;Max_cycle;Signal;HPM_P1;HPM_P2
2023/05/15 06:45:22;;;;;;;8.20;4.40;;;;;;;19.23;50.89;97475.82;105869;1276;600072;-87
2023/05/15 06:47:51;;;;;;;5.80;3.50;;;;;;;19.29;50.87;97477.15;105473;1267;62223;-84
2023/05/15 06:50:18;;;;;;;9.40;4.50;;;;;;;19.34;50.69;97476.51;105499;1267;62135;-84
2023/05/15 06:52:47;;;;;;;9.50;3.80;;;;;;;19.38;50.68;97479.11;105341;1267;74220;-84
2023/05/15 06:55:16;;;;;;;6.60;3.80;;;;;;;19.42;50.70;97480.68;105853;1260;70849;-84
2023/05/15 07:07:18;;;;;;;9.60;3.70;;;;;;;19.58;51.16;97464.96;103335;1288;602665;-82
2023/05/15 07:09:47;;;;;;;9.10;4.10;;;;;;;19.67;51.09;97450.02;105636;1264;61856;-82
2023/05/15 07:12:15;;;;;;;7.70;3.60;;;;;;;19.68;51.02;97443.66;105565;1263;60392;-81
2023/05/15 07:14:45;;;;;;;4.90;3.60;;;;;;;19.67;51.29;97446.88;105349;1266;72887;-84
2023/05/15 07:17:13;;;;;;;12.30;3.40;;;;;;;19.66;51.64;97448.52;105164;1267;69698;-82
2023/05/15 07:19:47;;;;;;;7.10;4.00;;;;;;;19.64;51.65;97451.33;105224;1261;194700;-83
2023/05/15 07:22:19;;;;;;;10.30;3.80;;;;;;;19.60;51.89;97445.60;105964;1264;60196;-85
2023/05/15 07:24:57;;;;;;;6.60;3.70;;;;;;;19.59;51.95;97438.73;106492;1260;60180;-82
2023/05/15 07:27:28;;;;;;;7.40;4.00;;;;;;;19.57;51.98;97440.77;106505;1254;72819;-84
2023/05/15 07:30:07;;;;;;;10.50;4.10;;;;;;;19.56;52.00;97450.00;106702;1254;68610;-86
2023/05/15 07:32:38;;;;;;;4.40;3.50;;;;;;;19.54;51.96;97446.02;106627;1251;73533;-87
2023/05/15 07:35:06;;;;;;;7.50;4.20;;;;;;;19.54;52.01;97445.67;106602;1253;59967;-82
2023/05/15 07:37:35;;;;;;;7.80;3.80;;;;;;;19.53;51.95;97447.59;106464;1252;59617;-84
2023/05/15 07:40:03;;;;;;;4.80;3.50;;;;;;;19.52;52.13;97449.66;106227;1256;74061;-83
2023/05/15 07:42:32;;;;;;;5.60;3.60;;;;;;;19.53;52.22;97452.73;106304;1254;69475;-85
2023/05/15 07:45:00;;;;;;;5.70;3.90;;;;;;;19.52;52.08;97450.45;106200;1251;73446;-84
2023/05/15 07:47:28;;;;;;;12.20;3.90;;;;;;;19.52;52.14;97443.71;105982;1254;61183;-82
2023/05/15 07:49:56;;;;;;;14.00;4.00;;;;;;;19.52;52.13;97446.64;106068;1256;60556;-86
2023/05/15 07:52:23;;;;;;;8.40;4.10;;;;;;;19.52;52.16;97444.05;106321;1254;74510;-84
2023/05/15 07:55:05;;;;;;;6.10;4.10;;;;;;;19.53;52.17;97441.04;106364;1254;69724;-82
2023/05/15 07:57:33;;;;;;;6.00;3.60;;;;;;;19.53;52.25;97436.52;106194;1256;73792;-83
2023/05/15 08:00:06;;;;;;;6.10;4.20;;;;;;;19.54;52.09;97440.23;106013;1251;61235;-87
2023/05/15 08:02:44;;;;;;;7.00;3.80;;;;;;;19.54;52.15;97439.30;106326;1251;60521;-83
2023/05/15 08:05:15;;;;;;;6.40;3.60;;;;;;;19.54;51.97;97443.25;106350;1254;73017;-89
2023/05/15 08:07:53;;;;;;;11.00;3.80;;;;;;;19.55;51.93;97440.11;106126;1256;68649;-88
2023/05/15 08:10:42;;;;;;;7.80;3.40;;;;;;;19.55;52.00;97435.00;106246;1259;73683;-87
2023/05/15 08:13:10;;;;;;;7.50;4.50;;;;;;;19.55;51.96;97429.75;106519;1253;60383;-87
2023/05/15 08:15:38;;;;;;;8.50;5.00;;;;;;;19.55;52.05;97425.75;106852;1254;60280;-87
2023/05/15 08:18:09;;;;;;;6.50;4.20;;;;;;;19.56;51.99;97425.83;106916;1256;74022;-88
2023/05/15 08:20:37;;;;;;;10.60;4.40;;;;;;;19.56;52.02;97427.55;106947;1253;69082;-88
2023/05/15 08:23:10;;;;;;;7.40;4.60;;;;;;;19.58;52.02;97421.25;106642;1254;72009;-87
2023/05/15 08:25:39;;;;;;;5.80;3.50;;;;;;;19.58;51.99;97421.55;106418;1254;60345;-82
2023/05/15 08:28:09;;;;;;;8.60;4.40;;;;;;;19.59;51.80;97431.63;106699;1254;61783;-86
2023/05/15 08:31:06;;;;;;;9.30;4.40;;;;;;;19.59;51.74;97438.13;106403;1253;73943;-86
2023/05/15 08:34:10;;;;;;;8.70;4.70;;;;;;;19.59;51.76;97446.08;106188;1254;69220;-84
2023/05/15 08:36:38;;;;;;;9.00;4.40;;;;;;;19.59;51.59;97444.99;106109;1254;73650;-85
2023/05/15 08:39:08;;;;;;;9.20;4.30;;;;;;;19.59;51.60;97435.02;106698;1251;61534;-84
2023/05/15 08:41:50;;;;;;;6.20;4.60;;;;;;;19.59;51.58;97434.89;106245;1254;60175;-86
2023/05/15 08:44:21;;;;;;;6.20;4.50;;;;;;;19.58;51.51;97420.59;106383;1251;73052;-88
2023/05/15 08:47:10;;;;;;;6.00;5.00;;;;;;;19.58;51.57;97419.17;106193;1253;69935;-83
2023/05/15 08:50:08;;;;;;;6.80;4.70;;;;;;;19.57;51.58;97419.66;106141;1256;72003;-87
2023/05/15 08:52:46;;;;;;;7.80;5.20;;;;;;;19.56;51.71;97418.52;106541;1253;60872;-88
2023/05/15 08:55:14;;;;;;;7.20;4.30;;;;;;;19.56;51.51;97417.63;106289;1253;61067;-83
2023/05/15 08:57:46;;;;;;;6.80;5.20;;;;;;;19.55;51.49;97417.52;106348;1256;74129;-84
2023/05/15 09:00:15;;;;;;;5.90;4.70;;;;;;;19.54;51.41;97412.03;106213;1254;69531;-82
2023/05/15 09:02:43;;;;;;;7.30;5.20;;;;;;;19.54;51.39;97412.23;106481;1251;73694;-83
2023/05/15 09:05:14;;;;;;;9.60;5.10;;;;;;;19.53;51.35;97407.27;106458;1251;61329;-85
2023/05/15 09:07:47;;;;;;;7.90;5.00;;;;;;;19.53;51.23;97413.86;106713;1253;61412;-82
2023/05/15 09:10:14;;;;;;;11.20;6.00;;;;;;;19.52;51.19;97415.95;106590;1251;74065;-82
2023/05/15 09:12:45;;;;;;;8.10;4.60;;;;;;;19.51;51.14;97413.15;106581;1251;69654;-83
2023/05/15 09:15:16;;;;;;;8.10;5.40;;;;;;;19.50;51.19;97409.55;106754;1251;73493;-80
2023/05/15 09:17:47;;;;;;;8.00;5.30;;;;;;;19.50;51.15;97408.88;106658;1251;60975;-81
2023/05/15 09:20:30;;;;;;;7.00;5.10;;;;;;;19.49;51.05;97410.58;107067;1251;60961;-81
2023/05/15 09:22:58;;;;;;;6.10;5.40;;;;;;;19.49;50.88;97406.44;107308;1251;73242;-80
2023/05/15 09:25:39;;;;;;;10.60;5.20;;;;;;;19.48;50.91;97406.91;106714;1253;69034;-83
2023/05/15 09:28:09;;;;;;;6.40;4.70;;;;;;;19.48;50.94;97401.26;106716;1253;73689;-88
2023/05/15 09:30:41;;;;;;;7.40;5.20;;;;;;;19.48;50.78;97396.73;106570;1256;61291;-85
2023/05/15 09:33:09;;;;;;;7.30;5.20;;;;;;;19.47;50.95;97402.98;106255;1251;60467;-85
2023/05/15 09:35:38;;;;;;;8.40;5.00;;;;;;;19.48;50.69;97412.77;106206;1255;73721;-86
2023/05/15 09:38:11;;;;;;;8.60;5.40;;;;;;;19.47;50.77;97420.45;106097;1251;69470;-84
2023/05/15 09:40:39;;;;;;;9.70;5.20;;;;;;;19.47;50.62;97419.42;105970;1254;73697;-88
2023/05/15 09:43:13;;;;;;;8.80;5.40;;;;;;;19.46;50.56;97412.97;105925;1254;61475;-85
2023/05/15 09:45:41;;;;;;;7.10;5.20;;;;;;;19.46;50.52;97409.93;105990;1259;61029;-85
2023/05/15 09:48:10;;;;;;;9.70;5.20;;;;;;;19.45;50.52;97407.28;106127;1254;74125;-87
2023/05/15 09:50:40;;;;;;;8.80;6.10;;;;;;;19.44;50.53;97409.92;106120;1256;68670;-86
2023/05/15 09:53:10;;;;;;;9.90;4.70;;;;;;;19.44;50.66;97398.02;105988;1254;72365;-84
2023/05/15 09:55:40;;;;;;;8.10;6.60;;;;;;;19.43;51.01;97393.73;106110;1252;59697;-85
2023/05/15 09:58:10;;;;;;;11.80;5.50;;;;;;;19.43;51.17;97394.11;106104;1254;60063;-87
2023/05/15 10:00:45;;;;;;;7.90;5.60;;;;;;;19.43;51.17;97398.42;106022;1253;72866;-85
2023/05/15 10:03:18;;;;;;;8.10;5.70;;;;;;;19.43;51.14;97405.48;106102;1251;70438;-85
2023/05/15 10:05:49;;;;;;;7.80;5.10;;;;;;;19.44;51.22;97417.79;106217;1254;75161;-85
2023/05/15 10:08:28;;;;;;;8.40;5.80;;;;;;;19.44;51.45;97428.27;106264;1254;59643;-81
2023/05/15 10:10:58;;;;;;;8.50;6.00;;;;;;;19.44;51.55;97428.48;106134;1254;61753;-86
2023/05/15 10:13:27;;;;;;;12.30;5.40;;;;;;;19.45;51.40;97432.55;106176;1251;71977;-82
2023/05/15 10:15:55;;;;;;;9.20;5.80;;;;;;;19.45;51.49;97439.93;106192;1257;69630;-82
2023/05/15 10:18:25;;;;;;;7.00;5.20;;;;;;;19.45;51.54;97437.58;106050;1254;73228;-86
2023/05/15 10:20:53;;;;;;;8.90;5.10;;;;;;;19.46;51.47;97436.76;106066;1251;59880;-83
2023/05/15 10:23:21;;;;;;;6.00;4.60;;;;;;;19.46;51.52;97437.30;106240;1256;61346;-85
2023/05/15 10:26:00;;;;;;;8.70;5.30;;;;;;;19.47;51.49;97433.05;106389;1251;71808;-85
2023/05/15 10:28:38;;;;;;;7.40;5.10;;;;;;;19.47;51.59;97432.30;106367;1251;69501;-85
2023/05/15 10:31:17;;;;;;;9.20;6.40;;;;;;;19.47;51.41;97423.54;106338;1254;73417;-85
2023/05/15 10:34:07;;;;;;;7.00;5.10;;;;;;;19.48;51.45;97425.30;106207;1256;60158;-84
2023/05/15 10:36:36;;;;;;;15.70;5.70;;;;;;;19.47;51.37;97426.68;106276;1251;61037;-85
2023/05/15 10:39:09;;;;;;;8.70;5.50;;;;;;;19.47;51.29;97425.52;106138;1251;72872;-86
2023/05/15 10:41:38;;;;;;;6.60;5.00;;;;;;;19.47;51.47;97422.33;106189;1257;69738;-83
2023/05/15 10:44:08;;;;;;;8.10;5.50;;;;;;;19.47;51.49;97424.45;106028;1254;73613;-83
2023/05/15 10:46:36;;;;;;;6.60;5.90;;;;;;;19.47;51.48;97424.08;106221;1257;60018;-84
2023/05/15 10:49:04;;;;;;;9.00;5.10;;;;;;;19.47;51.55;97416.13;106154;1251;60372;-83
2023/05/15 10:51:40;;;;;;;8.40;4.60;;;;;;;19.47;51.59;97418.27;106315;1253;73736;-82
2023/05/15 10:54:25;;;;;;;5.80;5.20;;;;;;;19.48;51.64;97423.96;106154;1254;68692;-82
2023/05/15 10:56:54;;;;;;;7.20;4.70;;;;;;;19.48;51.82;97426.40;106015;1254;73760;-83
2023/05/15 10:59:32;;;;;;;7.40;5.60;;;;;;;19.48;52.00;97424.17;106418;1251;59657;-80
2023/05/15 11:02:22;;;;;;;8.20;6.20;;;;;;;19.49;51.98;97426.23;106601;1251;59582;-85
2023/05/15 11:04:55;;;;;;;7.40;4.90;;;;;;;19.50;52.12;97431.88;106217;1256;71995;-82
2023/05/15 11:07:24;;;;;;;;;;;;;;;19.52;52.27;97430.42;106242;1253;68548;-81
